Latest Weather Observations for Maroochydore

IDQ60801

Issued at 10:02 am EST Monday 26 September 2016 (issued every 30 minutes, with the page automatically refreshed every 10 minutes)

About weather observations | Map of weather stations | Latest weather observations for QLD | Other Formats
Station Details ID: 040861 Name: SUNSHINE COAST AIRPORT Lat: -26.60 Lon: 153.09 Height: 3.3 m
Data from the previous 72 hours. | See also: Recent months at Maroochydore
Date/Time
EST
Temp
°C
App
Temp
°C
Dew
Point
°C
Rel
Hum
%
Delta-T
°C
Wind Press
QNH
hPa
Press
MSL
hPa
Rain since
9am
mm
Dir  Spd
km/h
Gust
km/h
Spd
kts
Gust
kts
26/09:30am 24.6 20.0 6.4 31 9.4 S 20 28 11 15 1013.1 - 0.0
26/09:00am 23.4 18.5 5.3 31 9.1 SSW 20 30 11 16 1013.2 1013.2 0.0
26/08:30am 22.9 19.3 6.6 35 8.4 SSW 15 26 8 14 1013.3 - 0.0
26/08:00am 21.5 16.7 7.3 40 7.3 SSW 22 30 12 16 1013.2 - 0.0
26/07:30am 20.4 16.2 8.1 45 6.4 SW 20 30 11 16 1013.0 - 0.0
26/07:00am 19.3 15.7 8.3 49 5.7 SW 17 26 9 14 1012.6 - 0.0
26/06:30am 17.7 15.7 8.6 55 4.7 SSW 9 15 5 8 1012.3 - 0.0
26/06:00am 16.1 13.2 8.3 60 4.0 SW 13 17 7 9 1011.8 1011.8 0.0
26/05:30am 15.7 12.8 8.2 61 3.8 SSW 13 15 7 8 1011.3 - 0.0
26/05:00am 16.1 12.9 8.3 60 4.0 SW 15 17 8 9 1011.0 - 0.0
26/04:30am 16.3 13.1 8.5 60 4.0 SSW 15 20 8 11 1010.7 - 0.0
26/04:00am 15.9 13.1 8.6 62 3.7 SW 13 17 7 9 1010.7 - 0.0
26/03:30am 15.8 13.5 9.0 64 3.5 SSW 11 13 6 7 1010.7 - 0.0
26/03:00am 15.4 13.1 8.9 65 3.3 SSW 11 17 6 9 1010.4 1010.4 0.0
26/02:30am 13.0 11.1 7.7 70 2.6 WSW 7 13 4 7 1010.5 - 0.0
26/02:00am 14.8 12.8 8.7 67 3.1 WSW 9 11 5 6 1010.5 - 0.0
26/01:30am 15.7 12.7 9.1 65 3.4 SW 15 19 8 10 1010.5 - 0.0
26/01:00am 14.7 13.9 8.2 65 3.3 W 2 7 1 4 1010.9 - 0.0
26/12:30am 15.0 13.1 7.5 61 3.7 W 7 9 4 5 1010.8 - 0.0
26/12:00am 18.6 16.2 7.1 47 5.8 W 9 13 5 7 1010.8 1010.8 0.0
 
Date/Time
EST
Temp
°C
App
Temp
°C
Dew
Point
°C
Rel
Hum
%
Delta-T
°C
Wind Press
QNH
hPa
Press
MSL
hPa
Rain since
9am
mm
Dir  Spd
km/h
Gust
km/h
Spd
kts
Gust
kts
25/11:30pm 18.6 14.8 7.7 49 5.5 WSW 17 24 9 13 1010.7 - 0.0
25/11:00pm 19.9 16.6 6.6 42 6.7 SW 13 20 7 11 1010.9 - 0.0
25/10:30pm 20.7 16.4 7.0 41 7.0 SW 19 24 10 13 1010.6 - 0.0
25/10:00pm 21.0 16.8 7.3 41 7.0 WSW 19 28 10 15 1010.5 - 0.0
25/09:30pm 21.7 18.7 7.9 41 7.2 SSW 13 20 7 11 1010.0 - 0.0
25/09:00pm 22.1 18.5 8.2 41 7.3 SW 17 22 9 12 1009.9 1009.9 0.0
25/08:30pm 22.8 19.0 9.2 42 7.3 WSW 19 24 10 13 1009.4 - 0.0
25/08:00pm 22.6 19.6 10.7 47 6.6 WSW 17 26 9 14 1009.0 - 0.0
25/07:30pm 20.5 19.3 15.1 71 3.2 WSW 15 22 8 12 1008.7 - 0.0
25/07:00pm 19.3 20.3 16.9 86 1.5 NW 7 9 4 5 1008.3 - 0.0
25/06:30pm 20.2 21.7 17.6 85 1.6 N 6 9 3 5 1007.8 - 0.0
25/06:00pm 20.8 21.1 17.8 83 1.9 NNE 13 17 7 9 1007.1 1007.1 0.0
25/05:30pm 22.1 22.1 18.9 82 2.0 NNE 17 20 9 11 1006.4 - 0.0
25/05:00pm 22.9 22.7 19.3 80 2.3 NNE 19 24 10 13 1005.9 - 0.0
25/04:30pm 23.4 22.3 18.7 75 3.0 NNE 22 28 12 15 1005.5 - 0.0
25/04:00pm 24.2 23.5 18.6 71 3.5 NNE 20 26 11 14 1005.4 - 0.0
25/03:30pm 24.1 24.6 19.2 74 3.1 ENE 15 20 8 11 1005.2 - 0.0
25/03:00pm 23.8 23.1 18.2 71 3.5 NE 19 26 10 14 1005.0 1005.0 0.0
25/02:30pm 24.5 23.7 17.2 63 4.5 E 17 24 9 13 1004.9 - 0.0
25/02:00pm 24.8 23.5 16.8 61 4.9 ENE 19 24 10 13 1005.0 - 0.0
25/01:30pm 24.7 23.7 17.9 66 4.3 NE 20 24 11 13 1005.3 - 0.0
25/01:00pm 25.2 24.5 17.4 62 4.9 NE 17 22 9 12 1005.5 - 0.0
25/12:30pm 26.4 24.7 17.2 57 5.7 NNE 22 30 12 16 1006.0 - 0.0
25/12:00pm 25.1 23.7 17.0 60 5.0 NE 20 26 11 14 1006.6 1006.6 0.0
25/11:30am 24.3 23.3 16.6 62 4.7 NE 17 20 9 11 1007.3 - 0.0
25/11:00am 23.7 23.3 16.2 63 4.6 ENE 13 19 7 10 1008.0 - 0.0
25/10:30am 23.7 23.8 16.5 64 4.4 E 11 15 6 8 1008.5 - 0.0
25/10:00am 22.8 23.2 16.4 67 3.9 NE 9 11 5 6 1009.0 - 0.0
25/09:30am 22.2 22.5 16.9 72 3.2 ENE 11 13 6 7 1009.1 - 0.0
25/09:00am 21.3 22.2 16.5 74 2.9 NE 7 11 4 6 1009.7 1009.7 0.0
25/08:30am 21.7 22.2 17.5 77 2.6 NE 11 15 6 8 1009.6 - 0.0
25/08:00am 20.9 22.9 17.9 83 1.9 ENE 4 9 2 5 1009.9 - 0.0
25/07:30am 19.9 21.7 17.5 86 1.5 SSE 4 7 2 4 1010.1 - 0.0
25/07:00am 16.9 18.9 16.1 95 0.5 CALM 0 0 0 0 1010.0 - 0.0
25/06:30am 14.4 14.5 13.9 97 0.3 SW 6 7 3 4 1009.5 - 0.0
25/06:00am 13.0 12.5 12.5 97 0.3 SSE 7 7 4 4 1009.1 1009.1 0.0
25/05:30am 11.3 11.5 10.5 95 0.4 CALM 0 0 0 0 1008.9 - 0.0
25/05:00am 12.2 12.0 11.7 97 0.3 W 4 7 2 4 1008.7 - 0.0
25/04:30am 11.6 11.6 11.0 96 0.3 WNW 2 9 1 5 1008.4 - 0.0
25/04:00am 11.9 11.6 11.4 97 0.3 WNW 4 6 2 3 1007.9 - 0.0
25/03:50am 12.2 12.0 11.9 98 0.2 WNW 4 6 2 3 1008.0 - 0.0
25/03:30am 11.4 11.7 10.8 96 0.3 CALM 0 9 0 5 1008.3 - 0.0
25/03:08am 12.2 12.7 11.6 96 0.3 CALM 0 0 0 0 1008.2 - 0.0
25/03:00am 11.9 12.3 11.3 96 0.3 CALM 0 0 0 0 1008.4 1008.4 0.0
25/02:30am 12.3 11.5 11.7 96 0.3 WNW 7 7 4 4 1008.8 - 0.0
25/02:00am 12.6 12.1 12.0 96 0.3 WNW 6 7 3 4 1008.6 - 0.0
25/01:30am 12.9 12.3 12.4 97 0.3 NW 7 9 4 5 1008.7 - 0.0
25/01:00am 12.4 11.3 11.9 97 0.3 NW 9 13 5 7 1008.9 - 0.0
25/12:30am 12.2 11.4 11.6 96 0.3 WNW 7 9 4 5 1009.1 - 0.0
25/12:00am 12.7 12.2 12.1 96 0.3 W 6 7 3 4 1009.3 1009.3 0.0
 
Date/Time
EST
Temp
°C
App
Temp
°C
Dew
Point
°C
Rel
Hum
%
Delta-T
°C
Wind Press
QNH
hPa
Press
MSL
hPa
Rain since
9am
mm
Dir  Spd
km/h
Gust
km/h
Spd
kts
Gust
kts
24/11:30pm 12.9 12.3 12.3 96 0.3 W 7 9 4 5 1009.6 - 0.0
24/11:00pm 13.0 12.0 12.4 96 0.3 W 9 9 5 5 1010.0 - 0.0
24/10:30pm 12.7 11.6 11.9 95 0.4 WNW 9 11 5 6 1010.0 - 0.0
24/10:00pm 13.0 12.3 12.1 94 0.5 W 7 9 4 5 1010.4 - 0.0
24/09:30pm 13.0 12.2 11.7 92 0.7 WSW 7 7 4 4 1010.8 - 0.0
24/09:00pm 13.9 13.4 12.6 92 0.7 SW 7 9 4 5 1010.9 1010.9 0.0
24/08:30pm 14.0 13.3 11.5 85 1.3 SW 6 7 3 4 1010.9 - 0.0
24/08:00pm 15.7 15.4 13.2 85 1.4 SW 7 11 4 6 1010.7 - 0.0
24/07:30pm 15.0 15.4 12.5 85 1.4 NE 2 7 1 4 1010.4 - 0.0
24/07:00pm 16.2 17.0 12.4 78 2.1 CALM 0 6 0 3 1010.0 - 0.0
24/06:30pm 18.2 16.9 12.6 70 3.1 NE 11 15 6 8 1009.8 - 0.0
24/06:00pm 19.2 18.3 12.5 65 3.8 NE 9 13 5 7 1009.6 1009.6 0.0
24/05:30pm 20.1 17.9 12.1 60 4.5 NE 15 17 8 9 1008.9 - 0.0
24/05:00pm 21.0 18.7 11.9 56 5.1 NE 15 20 8 11 1008.5 - 0.0
24/04:30pm 21.7 18.9 11.4 52 5.7 NE 17 22 9 12 1008.4 - 0.0
24/04:00pm 22.3 19.5 11.4 50 6.1 ENE 17 20 9 11 1008.3 - 0.0
24/03:30pm 22.6 19.4 10.1 45 6.8 ENE 17 22 9 12 1008.4 - 0.0
24/03:00pm 23.0 20.2 11.4 48 6.5 ENE 17 22 9 12 1008.4 1008.4 0.0
24/02:30pm 22.7 19.8 11.1 48 6.4 ENE 17 20 9 11 1008.5 - 0.0
24/02:00pm 22.9 19.9 10.7 46 6.7 E 17 20 9 11 1008.8 - 0.0
24/01:30pm 23.0 20.4 12.0 50 6.2 E 17 22 9 12 1009.3 - 0.0
24/01:00pm 22.5 20.0 12.2 52 5.8 E 17 22 9 12 1009.6 - 0.0
24/12:30pm 22.0 18.8 11.4 51 5.9 E 19 22 10 12 1010.1 - 0.0
24/12:00pm 21.8 19.0 11.2 51 5.9 ENE 17 24 9 13 1010.6 1010.6 0.0
24/11:30am 22.5 19.8 11.6 50 6.1 ENE 17 20 9 11 1010.9 - 0.0
24/11:00am 21.8 18.9 10.9 50 6.0 E 17 20 9 11 1011.6 - 0.0
24/10:30am 21.9 19.0 11.0 50 6.0 E 17 20 9 11 1011.9 - 0.0
24/10:00am 21.1 18.0 10.3 50 5.9 E 17 20 9 11 1012.2 - 0.0
24/09:30am 21.4 18.8 9.3 46 6.5 ENE 13 17 7 9 1012.6 - 0.0
24/09:00am 21.5 20.4 10.6 50 6.0 NE 7 13 4 7 1012.7 1012.7 0.0
24/08:30am 20.0 19.1 11.2 57 4.8 WNW 7 9 4 5 1012.8 - 0.0
24/08:00am 18.0 16.5 10.6 62 4.0 W 9 11 5 6 1012.9 - 0.0
24/07:30am 15.7 14.4 11.3 75 2.4 W 9 11 5 6 1012.8 - 0.0
24/07:00am 13.6 12.1 10.4 81 1.7 W 9 11 5 6 1012.7 - 0.0
24/06:30am 11.7 10.0 9.9 89 0.9 W 9 11 5 6 1012.5 - 0.0
24/06:00am 9.5 7.1 8.7 95 0.4 W 11 15 6 8 1012.1 1012.1 0.0
24/05:30am 8.8 6.3 8.0 95 0.4 W 11 13 6 7 1011.7 - 0.0
24/05:00am 9.0 6.8 7.9 93 0.5 WNW 9 11 5 6 1011.4 - 0.0
24/04:30am 9.5 7.1 8.6 94 0.4 WNW 11 13 6 7 1011.1 - 0.0
24/04:00am 9.0 6.8 7.8 92 0.6 W 9 9 5 5 1010.8 - 0.0
24/03:30am 9.6 6.7 8.2 91 0.7 W 13 15 7 8 1010.6 - 0.0
24/03:00am 9.7 7.3 8.5 92 0.6 WNW 11 13 6 7 1010.6 1010.6 0.0
24/02:30am 9.8 7.3 8.1 89 0.8 WNW 11 13 6 7 1010.9 - 0.0
24/02:00am 10.1 8.1 8.5 90 0.8 W 9 11 5 6 1011.1 - 0.0
24/01:30am 10.3 7.5 8.7 90 0.8 WNW 13 15 7 8 1011.0 - 0.0
24/01:00am 10.3 7.8 8.4 88 0.9 WNW 11 13 6 7 1011.1 - 0.0
24/12:30am 10.9 8.8 8.3 84 1.3 WNW 9 11 5 6 1011.0 - 0.0
24/12:00am 11.0 8.9 8.2 83 1.4 WNW 9 11 5 6 1011.1 1011.1 0.0
 
Date/Time
EST
Temp
°C
App
Temp
°C
Dew
Point
°C
Rel
Hum
%
Delta-T
°C
Wind Press
QNH
hPa
Press
MSL
hPa
Rain since
9am
mm
Dir  Spd
km/h
Gust
km/h
Spd
kts
Gust
kts
23/11:30pm 11.8 9.4 8.6 81 1.6 NW 11 15 6 8 1011.3 - 0.0
23/11:00pm 12.3 10.1 9.3 82 1.5 WNW 11 13 6 7 1011.6 - 0.0
23/10:30pm 12.0 9.8 9.4 84 1.3 WNW 11 13 6 7 1011.7 - 0.0
23/10:00pm 11.7 9.8 9.1 84 1.3 W 9 11 5 6 1011.8 - 0.0
23/09:30pm 12.4 10.2 9.2 81 1.6 WNW 11 11 6 6 1012.0 - 0.0
23/09:00pm 11.6 11.2 8.3 80 1.6 CALM 0 0 0 0 1011.9 1011.9 0.0
23/08:30pm 13.1 11.5 8.2 72 2.4 W 6 7 3 4 1011.8 - 0.0
23/08:00pm 14.4 12.3 8.4 67 3.0 W 9 11 5 6 1011.5 - 0.0
23/07:30pm 14.7 12.3 8.6 67 3.1 WNW 11 13 6 7 1011.2 - 0.0
23/07:00pm 16.6 14.8 7.0 53 4.8 W 6 9 3 5 1010.8 - 0.0
23/06:30pm 17.9 15.4 6.4 47 5.7 W 9 13 5 7 1010.5 - 0.0
23/06:00pm 19.2 16.1 5.6 41 6.7 WSW 11 13 6 7 1010.1 1010.1 0.0
23/05:30pm 21.3 18.0 4.4 33 8.2 WSW 11 15 6 8 1009.7 - 0.0
23/05:00pm 23.0 18.5 4.0 29 9.3 WSW 17 22 9 12 1009.3 - 0.0
23/04:30pm 23.7 18.6 3.1 26 9.9 SW 19 26 10 14 1008.8 - 0.0
23/04:00pm 24.3 19.2 3.0 25 10.3 WSW 19 28 10 15 1008.6 - 0.0
23/03:30pm 24.8 19.8 3.5 25 10.4 SW 19 26 10 14 1008.5 - 0.0
23/03:00pm 24.5 18.6 2.0 23 10.7 SW 22 30 12 16 1008.6 1008.6 0.0
23/02:30pm 25.0 19.7 3.0 24 10.7 SW 20 32 11 17 1008.6 - 0.0
23/02:00pm 24.8 18.9 1.7 22 10.9 WSW 22 30 12 16 1009.0 - 0.0
23/01:30pm 24.8 19.9 1.7 22 10.9 SSW 17 24 9 13 1009.2 - 0.0
23/01:00pm 24.1 18.0 2.9 25 10.2 SW 24 37 13 20 1009.6 - 0.0
23/12:30pm 24.7 19.8 5.0 28 9.9 W 20 33 11 18 1009.9 - 0.0
23/12:00pm 23.2 17.6 3.7 28 9.5 WSW 22 33 12 18 1010.4 1010.4 0.0
23/11:30am 22.7 15.8 2.8 27 9.5 WSW 28 37 15 20 1010.7 - 0.0
23/11:00am 22.7 16.2 4.7 31 8.9 WSW 28 37 15 20 1011.4 - 0.0
23/10:30am 21.9 14.4 3.6 30 8.8 W 32 44 17 24 1011.7 - 0.0

Other Formats:

Comma delimited format used in spreadsheet applications
http://www.bom.gov.au/fwo/IDQ60801/IDQ60801.94569.axf

JavaScript Object Notation format (JSON) in row-major order
http://www.bom.gov.au/fwo/IDQ60801/IDQ60801.94569.json